Astro Chloe — SVAL7 — position and weather

sailwx.info

Track history (hours):
 
Tides and Currents Weather Stations Pressure Air Temp Water Temp Dewpoint Dewpoint Depression Visibility Wind Speed Wind Dir Waves Ship Positions

Astro Chloe

Last reported at 2017-Feb-16 12:31 UTC. Time now 2017-Feb-23 16:04 UTC.
Position S 19°31' E 058°03'.

Length 333 m; draft 21.5 m.

Type: Tanker. MMSI: 240839000.

Date/timePositionNaut miles runAvg speedWind from/ knotsBaromVisibWave heightAir tempDewpointWater temp
2017-Feb-16 12:31S 19°31' E 058°03'1414.8
2017-Feb-16 11:34S 19°38' E 057°50'1414.0
2017-Feb-16 10:33S 19°45' E 057°37'1212.4
2017-Feb-16 09:33S 19°54' E 057°29'1212.1
2017-Feb-16 08:33S 20°06' E 057°27'2 1.6
2017-Feb-16 07:33S 20°08' E 057°27'5 4.5
2017-Feb-16 06:33S 20°10' E 057°23'1211.8
2017-Feb-16 05:33S 20°19' E 057°14'1512.7
2017-Feb-16 04:25S 20°29' E 057°04'1212.8
2017-Feb-16 03:28S 20°38' E 056°55'4113.6
2017-Feb-16 00:29S 21°07' E 056°24'4012.8
2017-Feb-15 21:22S 21°35' E 055°54'  
Track history (hours):
 
Tides and Currents Weather Stations Pressure Air Temp Water Temp Dewpoint Dewpoint Depression Visibility Wind Speed Wind Dir Waves Ship Positions

Astro Chloe

Last reported at 2017-Feb-16 12:31 UTC. Time now 2017-Feb-23 16:04 UTC.
Position S 19°31' E 058°03'.

Length 333 m; draft 21.5 m.

Type: Tanker. MMSI: 240839000.

Date/timePositionNaut miles runAvg speedWind from/ knotsBaromVisibWave heightAir tempDewpointWater temp
2017-Feb-16 12:31S 19°31' E 058°03'1414.8
2017-Feb-16 11:34S 19°38' E 057°50'1414.0
2017-Feb-16 10:33S 19°45' E 057°37'1212.4
2017-Feb-16 09:33S 19°54' E 057°29'1212.1
2017-Feb-16 08:33S 20°06' E 057°27'2 1.6
2017-Feb-16 07:33S 20°08' E 057°27'5 4.5
2017-Feb-16 06:33S 20°10' E 057°23'1211.8
2017-Feb-16 05:33S 20°19' E 057°14'1512.7
2017-Feb-16 04:25S 20°29' E 057°04'1212.8
2017-Feb-16 03:28S 20°38' E 056°55'4113.6
2017-Feb-16 00:29S 21°07' E 056°24'4012.8
2017-Feb-15 21:22S 21°35' E 055°54'  

Dump ship's entire track history